Accueil
METAR-TAF:

METAR-TAF

Aéroports :

Indore, Inde

latitude: 22-43N, longitude: 075-48E, altitude: 561 m

Observation

Le bulletin a été fait il y a 3 heures et 6 minutes, à 03:00 UTC
Vent 3 kt de nord-est
Température 16°C
Humidité 68%
Pression 1020 hPa
Visibilité: 2000 m
brume sèche

METAR: VAID 080300Z 05003KT 2000 HZ NSC 16/10 Q1020 NOSIG

Heure: 11:36 (06:06 UTC)

Prévision

Le bulletin a été fait il y a 1 heure et 6 minutes, à 05:00 UTC
Prévision valable du 08 à 06 UTC au 08 à 15 UTC
Vent 6 kt de nord-est
Visibilité: 3000 m
brume sèche

TAF: VAID 080500Z 0806/0815 05006KT 3000 HZ NSC

Observations et prévisions météorologiques de plus de 4000 aéroports (messages METAR et TAF).

Les stations disponibles sont représentées par des disques jaunes et rouges sur la carte.

Passer la souris dessus pour voir le nom de la station.

Cliquer dessus pour voir les observations et prévisions météorologiques.

Pour changer de carte: cliquez sur les boutons verts avec une croix noire pour zoomer, sur le bouton vert avec un tiret pour effectuer un zoom arrière, ou sur les flèches vertes pour les cartes adjacentes.


METAR-TAF: